Latest Weather Observations for Mallacoota

IDV60801

Issued at 5:35 pm EST Thursday 18 September 2014 (issued every 30 minutes, with the page automatically refreshed every 10 minutes)

About weather observations | Map of weather stations | Latest weather observations for VIC | Other Formats
Station Details ID: 084084 Name: MALLACOOTA Lat: -37.60 Lon: 149.73 Height: 22.0 m
Data from the previous 72 hours. | See also: Recent months at Mallacoota
Date/Time
EST
Temp
°C
App
Temp
°C
Dew
Point
Rel
Hum
%
Delta-T
°C
Wind Press
QNH
hPa
Press
MSL
hPa
Rain
since 9 am
mm
Dir
 
Spd
km/h
Gust
km/h
Spd
kts
Gust
kts
18/05:30pm 11.5 6.6 4.3 61 3.2 WSW 19 32 10 17 1018.8 - 0.0
18/05:00pm 12.0 7.0 4.7 61 3.3 WSW 20 39 11 21 1018.5 - 0.0
18/04:30pm 13.0 8.0 4.4 56 3.9 SW 20 37 11 20 1018.2 - 0.0
18/04:00pm 13.2 7.7 3.8 53 4.2 SW 22 35 12 19 1018.0 - 0.0
18/03:34pm 12.9 6.1 3.0 51 4.4 SW 28 46 15 25 1018.0 - 0.0
18/03:30pm 12.9 6.6 3.6 53 4.2 SW 26 46 14 25 1018.0 - 0.0
18/03:01pm 12.7 6.3 5.1 60 3.5 SW 28 50 15 27 1017.9 - 0.0
18/03:00pm 12.6 6.6 5.3 61 3.4 SW 26 50 14 27 1017.9 1017.9 0.0
18/02:32pm 10.5 4.0 4.9 68 2.5 SW 28 54 15 29 1018.1 - 0.0
18/02:30pm 11.4 5.8 5.3 66 2.8 SW 24 54 13 29 1018.0 - 0.0
18/02:13pm 13.6 7.2 5.0 56 4.0 WSW 28 46 15 25 1017.8 - 0.0
18/02:00pm 13.1 6.9 4.5 56 3.9 WSW 26 48 14 26 1017.9 - 0.0
18/01:30pm 13.7 8.4 4.8 55 4.1 WSW 22 37 12 20 1017.6 - 0.0
18/01:00pm 14.3 8.5 4.6 52 4.5 WSW 24 39 13 21 1017.4 - 0.0
18/12:31pm 13.8 7.2 4.4 53 4.3 WSW 28 54 15 29 1017.5 - 0.0
18/12:30pm 13.8 7.7 4.7 54 4.2 WSW 26 54 14 29 1017.5 - 0.0
18/12:00pm 14.2 7.7 4.5 52 4.5 WSW 28 48 15 26 1017.4 1017.4 0.0
18/11:43am 13.0 6.5 4.7 57 3.8 SW 28 46 15 25 1017.5 - 0.0
18/11:30am 13.5 7.9 5.4 58 3.8 WSW 24 43 13 23 1017.5 - 0.0
18/11:00am 12.8 6.5 5.9 63 3.3 WSW 28 46 15 25 1017.6 - 0.0
18/10:30am 11.5 6.2 6.8 73 2.2 SW 24 39 13 21 1017.5 - 0.0
18/10:00am 11.9 6.3 5.3 64 3.0 WSW 24 46 13 25 1017.3 - 0.0
18/09:30am 12.1 5.8 5.5 64 3.1 WSW 28 50 15 27 1017.0 - 0.0
18/09:25am 11.8 5.0 5.0 63 3.1 WSW 30 50 16 27 1016.9 - 0.0
18/09:00am 11.6 5.5 5.0 64 3.0 WSW 26 44 14 24 1016.8 1016.8 2.8
18/08:30am 10.4 5.2 5.4 71 2.3 WSW 22 48 12 26 1016.7 - 2.8
18/08:00am 10.6 4.9 4.9 68 2.6 WSW 24 46 13 25 1016.3 - 2.8
18/07:30am 9.7 4.0 4.7 71 2.2 WSW 24 46 13 25 1016.0 - 2.8
18/07:00am 9.1 3.2 3.9 70 2.3 W 24 46 13 25 1015.6 - 2.6
18/06:30am 8.9 3.8 4.1 72 2.1 W 20 39 11 21 1015.2 - 2.6
18/06:00am 8.3 3.2 4.3 76 1.7 W 20 35 11 19 1014.7 1014.7 2.6
18/05:30am 8.4 3.8 3.7 72 2.0 W 17 32 9 17 1014.0 - 2.6
18/05:00am 8.3 3.1 3.8 73 1.9 W 20 39 11 21 1013.8 - 2.6
18/04:30am 8.2 3.2 3.7 73 1.9 W 19 35 10 19 1013.5 - 2.6
18/04:00am 8.1 3.1 3.6 73 1.9 W 19 37 10 20 1013.4 - 2.6
18/03:30am 8.2 3.5 3.1 70 2.2 W 17 35 9 19 1013.0 - 2.6
18/03:00am 7.3 3.0 3.4 76 1.7 W 15 28 8 15 1013.2 1013.2 2.6
18/02:30am 8.5 3.1 2.7 67 2.4 W 20 39 11 21 1013.3 - 2.4
18/02:00am 8.3 3.4 2.3 66 2.5 W 17 33 9 18 1013.2 - 2.4
18/01:30am 8.2 3.5 3.1 70 2.2 WSW 17 28 9 15 1013.5 - 2.2
18/01:00am 8.5 3.0 2.1 64 2.7 W 20 35 11 19 1013.4 - 2.2
18/12:30am 8.5 3.2 2.1 64 2.7 W 19 33 10 18 1013.6 - 2.2
18/12:00am 8.4 3.6 2.4 66 2.5 W 17 30 9 16 1013.7 1013.7 2.2
 
Date/Time
EST
Temp
°C
App
Temp
°C
Dew
Point
Rel
Hum
%
Delta-T
°C
Wind Press
QNH
hPa
Press
MSL
hPa
Rain
since 9 am
mm
Dir
 
Spd
km/h
Gust
km/h
Spd
kts
Gust
kts
17/11:30pm 8.8 3.6 2.6 65 2.6 W 19 35 10 19 1014.0 - 2.0
17/11:00pm 8.6 3.9 3.0 68 2.4 W 17 28 9 15 1013.9 - 2.0
17/10:30pm 8.2 3.3 3.9 74 1.9 W 19 32 10 17 1013.7 - 2.0
17/10:00pm 7.9 3.5 4.8 81 1.4 W 17 28 9 15 1013.5 - 2.0
17/09:30pm 9.6 4.4 3.4 65 2.7 WSW 20 41 11 22 1013.3 - 1.2
17/09:00pm 9.8 5.3 4.0 67 2.6 W 17 32 9 17 1013.1 1013.1 1.2
17/08:30pm 9.9 5.0 4.1 67 2.6 WSW 19 35 10 19 1012.8 - 1.2
17/08:00pm 9.4 4.8 5.4 76 1.8 W 19 39 10 21 1012.7 - 1.2
17/07:30pm 9.0 3.4 5.6 79 1.5 WSW 24 43 13 23 1012.4 - 1.2
17/07:00pm 8.9 4.1 5.6 80 1.5 WSW 20 37 11 20 1012.4 - 1.2
17/06:41pm 8.9 2.6 5.8 81 1.4 SW 28 78 15 42 1012.4 - 1.0
17/06:30pm 10.3 5.8 5.9 74 2.0 SW 19 39 10 21 1011.9 - 0.8
17/06:21pm 10.3 4.0 5.9 74 2.0 SW 28 50 15 27 1011.7 - 0.8
17/06:00pm 10.3 5.9 6.6 78 1.7 WSW 19 32 10 17 1011.5 1011.5 0.8
17/05:30pm 11.3 5.0 5.8 69 2.6 WSW 28 46 15 25 1010.9 - 0.8
17/05:29pm 11.5 5.3 6.0 69 2.6 WSW 28 46 15 25 1010.9 - 0.8
17/05:00pm 11.1 7.7 7.8 80 1.6 WSW 15 20 8 11 1010.2 - 0.8
17/04:30pm 11.0 6.9 8.6 85 1.2 SW 20 33 11 18 1009.6 - 0.8
17/04:00pm 12.6 7.2 6.4 66 2.9 SW 24 41 13 22 1009.4 - 0.0
17/03:30pm 13.9 9.3 6.5 61 3.6 WSW 20 33 11 18 1008.9 - 0.0
17/03:00pm 13.8 9.6 7.6 66 3.1 WSW 19 39 10 21 1008.5 1008.5 0.0
17/02:30pm 15.4 10.5 6.7 56 4.3 SW 22 37 12 20 1008.1 - 0.0
17/02:00pm 16.6 12.1 7.0 53 4.8 SW 20 33 11 18 1007.7 - 0.0
17/01:30pm 16.5 11.8 6.1 50 5.1 WSW 20 37 11 20 1007.8 - 0.0
17/01:00pm 17.2 11.7 6.1 48 5.4 SW 24 43 13 23 1007.7 - 0.0
17/12:30pm 16.5 11.2 5.2 47 5.4 W 22 41 12 22 1007.8 - 0.0
17/12:00pm 15.7 12.0 6.2 53 4.6 W 15 28 8 15 1008.3 1008.3 0.0
17/11:30am 14.8 9.9 5.3 53 4.5 W 20 41 11 22 1008.7 - 0.0
17/11:00am 15.4 10.3 5.9 53 4.6 WSW 22 35 12 19 1009.0 - 0.0
17/10:30am 15.6 10.9 5.2 50 4.9 W 19 32 10 17 1009.2 - 0.0
17/10:00am 15.1 10.7 6.7 57 4.1 WSW 19 32 10 17 1009.5 - 0.0
17/09:30am 13.3 9.2 6.4 63 3.3 WSW 17 28 9 15 1009.9 - 0.0
17/09:00am 13.2 9.7 7.0 66 3.0 W 15 24 8 13 1010.2 1010.2 4.2
17/08:30am 12.7 8.8 7.2 69 2.7 W 17 30 9 16 1010.4 - 4.2
17/08:00am 11.9 8.4 7.0 72 2.3 W 15 35 8 19 1010.3 - 4.2
17/07:30am 11.8 8.8 7.5 75 2.1 W 13 24 7 13 1010.1 - 4.2
17/07:00am 11.3 7.8 7.4 77 1.9 W 15 32 8 17 1009.9 - 4.2
17/06:30am 10.6 6.7 7.3 80 1.6 W 17 28 9 15 1009.8 - 4.2
17/06:00am 10.5 7.0 7.4 81 1.5 W 15 32 8 17 1009.5 1009.5 4.2
17/05:30am 10.7 7.2 7.4 80 1.6 W 15 22 8 12 1009.4 - 4.2
17/05:00am 10.8 8.1 7.5 80 1.6 W 11 19 6 10 1009.1 - 4.2
17/04:30am 11.2 7.5 7.9 80 1.6 W 17 30 9 16 1008.7 - 4.2
17/04:00am 11.5 7.6 8.5 82 1.5 WSW 19 30 10 16 1008.5 - 4.2
17/03:30am 11.9 8.3 8.4 79 1.7 W 17 30 9 16 1008.3 - 4.2
17/03:00am 12.0 8.0 8.3 78 1.8 W 19 35 10 19 1008.1 1008.1 4.2
17/02:30am 12.2 8.0 8.3 77 1.9 W 20 37 11 20 1008.3 - 4.2
17/02:00am 12.4 8.9 8.7 78 1.8 WSW 17 32 9 17 1008.3 - 4.2
17/01:30am 12.6 9.5 8.7 77 1.9 WSW 15 35 8 19 1008.2 - 4.2
17/01:00am 12.6 9.2 9.2 80 1.7 W 17 30 9 16 1008.5 - 4.2
17/12:30am 12.8 9.5 9.6 81 1.6 W 17 26 9 14 1008.5 - 4.2
17/12:00am 12.6 8.9 9.6 82 1.5 W 19 35 10 19 1008.2 1008.2 4.2
 
Date/Time
EST
Temp
°C
App
Temp
°C
Dew
Point
Rel
Hum
%
Delta-T
°C
Wind Press
QNH
hPa
Press
MSL
hPa
Rain
since 9 am
mm
Dir
 
Spd
km/h
Gust
km/h
Spd
kts
Gust
kts
16/11:30pm 12.9 10.2 10.3 84 1.3 W 15 22 8 12 1008.3 - 4.2
16/11:00pm 13.0 9.9 10.2 83 1.4 WSW 17 28 9 15 1008.5 - 4.2
16/10:30pm 12.7 9.9 10.1 84 1.3 WSW 15 28 8 15 1008.7 - 4.2
16/10:00pm 13.0 10.0 10.5 85 1.3 WSW 17 30 9 16 1008.6 - 4.2
16/09:30pm 13.2 10.4 11.4 89 1.0 WSW 17 33 9 18 1008.4 - 4.2
16/09:00pm 12.8 12.1 11.5 92 0.7 W 6 11 3 6 1008.2 1008.2 4.2
16/08:30pm 12.2 11.2 10.9 92 0.7 N 7 9 4 5 1008.1 - 4.0
16/08:00pm 12.3 11.3 10.9 91 0.7 NNW 7 9 4 5 1007.8 - 4.0
16/07:30pm 12.7 11.7 11.1 90 0.8 WNW 7 11 4 6 1007.9 - 4.0
16/07:00pm 12.7 11.8 11.3 91 0.7 W 7 17 4 9 1007.4 - 4.0
16/06:30pm 14.0 12.7 12.6 91 0.8 NNW 11 17 6 9 1006.8 - 3.4
16/06:00pm 14.6 14.8 13.1 91 0.8 WSW 4 7 2 4 1007.2 1007.2 2.6
16/05:30pm 14.8 14.7 13.2 90 0.9 WNW 6 9 3 5 1006.9 - 2.4
16/05:00pm 14.9 14.5 13.1 89 1.0 WNW 7 13 4 7 1006.4 - 2.4
16/04:30pm 15.0 13.5 13.0 88 1.1 NNE 13 26 7 14 1005.5 - 2.4
16/04:00pm 15.0 12.1 12.9 87 1.2 NE 20 33 11 18 1004.9 - 2.4
16/03:30pm 16.3 13.5 12.5 78 2.1 N 19 30 10 16 1006.1 - 0.6
16/03:00pm 16.5 14.5 12.8 79 2.1 NE 15 24 8 13 1005.9 1005.9 0.6
16/02:30pm 16.3 13.1 13.0 81 1.8 ENE 22 32 12 17 1005.8 - 0.6
16/02:00pm 16.2 11.9 13.3 83 1.6 ENE 28 43 15 23 1005.7 - 0.6
16/01:30pm 16.4 12.7 13.9 85 1.4 ENE 26 35 14 19 1006.1 - 0.6
16/01:00pm 15.7 12.6 13.4 86 1.3 ENE 22 35 12 19 1006.5 - 0.6
16/12:30pm 16.6 14.8 13.3 81 1.8 NE 15 26 8 14 1007.1 - 0.6
16/12:00pm 17.0 15.6 13.5 80 2.0 NNE 13 20 7 11 1007.8 1007.8 0.6
16/11:30am 17.5 16.2 14.8 84 1.6 NNE 15 26 8 14 1008.3 - 0.6
16/11:00am 16.0 15.7 14.4 90 0.9 NE 9 15 5 8 1008.9 - 0.6
16/10:30am 14.7 14.1 13.4 92 0.7 NNE 9 15 5 8 1009.2 - 0.4
16/10:00am 14.5 12.7 13.2 92 0.7 NNE 15 20 8 11 1009.4 - 0.4
16/09:30am 14.4 11.6 13.1 92 0.7 NNE 20 26 11 14 1009.7 - 0.4
16/09:00am 14.3 12.8 13.2 93 0.6 NE 13 26 7 14 1009.8 1009.8 2.4
16/08:30am 14.5 13.1 13.5 94 0.6 NE 13 22 7 12 1010.1 - 2.2
16/08:00am 14.1 13.1 13.3 95 0.4 NE 11 19 6 10 1009.8 - 2.2
16/07:30am 13.4 14.2 12.6 95 0.4 CALM 0 0 0 0 1009.8 - 2.2
16/07:00am 12.5 13.0 11.7 95 0.4 CALM 0 0 0 0 1010.0 - 2.2
16/06:30am 12.5 11.3 11.7 95 0.4 N 9 13 5 7 1010.2 - 2.2
16/06:00am 12.3 11.1 11.5 95 0.4 NNW 9 13 5 7 1010.5 1010.5 2.2
16/05:30am 12.1 11.2 11.3 95 0.4 NW 7 9 4 5 1010.8 - 2.2
16/05:00am 11.9 11.1 11.1 95 0.4 WNW 6 9 3 5 1011.2 - 2.0
16/04:30am 11.6 11.1 10.8 95 0.4 NNW 4 7 2 4 1011.2 - 2.0
16/04:00am 10.8 10.8 9.9 94 0.5 CALM 0 0 0 0 1011.1 - 2.0
16/03:30am 11.5 10.4 10.6 94 0.5 NNW 7 7 4 4 1011.1 - 2.0
16/03:00am 11.3 11.5 10.4 94 0.5 CALM 0 0 0 0 1011.4 1011.4 2.0
16/02:30am 11.7 11.6 10.8 94 0.5 NW 2 6 1 3 1011.8 - 2.0
16/02:00am 11.7 11.6 10.8 94 0.5 NW 2 6 1 3 1012.2 - 1.8
16/01:30am 11.6 10.7 10.5 93 0.6 NW 6 7 3 4 1012.5 - 1.8
16/01:00am 12.2 12.6 11.1 93 0.6 CALM 0 0 0 0 1013.0 - 1.8
16/12:30am 12.3 12.3 11.2 93 0.6 SSW 2 6 1 3 1013.5 - 1.8
16/12:00am 12.4 11.4 11.1 92 0.7 WSW 7 9 4 5 1013.9 1013.9 1.6
 
Date/Time
EST
Temp
°C
App
Temp
°C
Dew
Point
Rel
Hum
%
Delta-T
°C
Wind Press
QNH
hPa
Press
MSL
hPa
Rain
since 9 am
mm
Dir
 
Spd
km/h
Gust
km/h
Spd
kts
Gust
kts
15/11:30pm 12.6 11.7 11.3 92 0.7 W 7 9 4 5 1014.2 - 1.0
15/11:00pm 12.8 13.2 11.4 91 0.7 CALM 0 0 0 0 1014.6 - 0.4
15/10:30pm 12.9 12.2 11.3 90 0.8 N 6 6 3 3 1014.9 - 0.4
15/10:00pm 12.9 12.1 11.0 88 1.0 N 6 7 3 4 1014.9 - 0.2
15/09:30pm 13.6 12.6 10.9 84 1.4 N 7 9 4 5 1015.1 - 0.0
15/09:00pm 13.9 12.5 10.9 82 1.6 NNE 9 13 5 7 1015.1 1015.1 0.0
15/08:30pm 14.1 12.7 10.9 81 1.7 NNE 9 13 5 7 1015.1 - 0.0
15/08:00pm 14.3 12.5 10.9 80 1.8 NNE 11 17 6 9 1015.3 - 0.0
15/07:30pm 14.4 12.2 10.8 79 1.9 ENE 13 19 7 10 1015.3 - 0.0
15/07:00pm 14.3 12.0 10.5 78 2.0 NE 13 17 7 9 1015.2 - 0.0
15/06:30pm 14.1 12.1 10.1 77 2.1 ENE 11 19 6 10 1015.1 - 0.0
15/06:00pm 14.0 12.7 9.8 76 2.2 NE 7 11 4 6 1015.1 1015.1 0.0

Other Formats:

Comma delimited format used in spreadsheet applications
http://www.bom.gov.au/fwo/IDV60801/IDV60801.94935.axf

JavaScript Object Notation format (JSON) in row-major order
http://www.bom.gov.au/fwo/IDV60801/IDV60801.94935.json